ELY192 UACC-LLBG
Flight info
| Callsign | ELY192 |
|---|---|
| Flight time | N/A |
| Altitude | 38000 |
| Route | KODOL1B KODOL T523 ATBAN L994 TITUR N985 ORTIM L158 IRGOS T613 DOGOB M864 ELMOD L4 TOKNU T288 STAPA M869 OPOKA/N0474F380 DCT LAUGA DCT VABER DCT ETUBO DCT ROBTU/N0480F390 DCT KENIN DCT TIXIP DCT LOMOS DCT NIKTI DCT AKINA DCT VANZA DCT PIKOG L609 ZUKKO |
| Aircraft | B772/H-SDE2E3FGHIJ1J4J5LM1OP2RVWXYZ/LB1D1 |
Departure
| Time | 2026-05-01 15:09 |
|---|---|
| Airport | Nursultan Nazarbayev International Airport (UACC) |
Arrival
| Time | N/A |
|---|---|
| Airport | Ben Gurion International Airport (LLBG) |
| Time | Latitude | Longitude | Altitude | Speed | Heading |
|---|---|---|---|---|---|
| 2026-05-01 14:40 | 51.03440 | 71.47608 | 1168 ft | 0 kts | 43° |
| 2026-05-01 15:06 | 51.03453 | 71.47627 | 1168 ft | 6 kts | 43° |
| 2026-05-01 15:06 | 51.03485 | 71.47694 | 1163 ft | 8 kts | 59° |
| 2026-05-01 15:06 | 51.03515 | 71.47773 | 1163 ft | 8 kts | 58° |
| 2026-05-01 15:06 | 51.03526 | 71.47860 | 1168 ft | 8 kts | 107° |
| 2026-05-01 15:07 | 51.03489 | 71.47930 | 1164 ft | 8 kts | 133° |
| 2026-05-01 15:07 | 51.03452 | 71.47996 | 1166 ft | 8 kts | 126° |
| 2026-05-01 15:07 | 51.03432 | 71.48081 | 1165 ft | 8 kts | 94° |
| 2026-05-01 15:07 | 51.03430 | 71.48174 | 1168 ft | 8 kts | 92° |
| 2026-05-01 15:08 | 51.03424 | 71.48267 | 1164 ft | 9 kts | 109° |
| 2026-05-01 15:08 | 51.03373 | 71.48332 | 1169 ft | 11 kts | 175° |
| 2026-05-01 15:08 | 51.03312 | 71.48268 | 1165 ft | 11 kts | 224° |
| 2026-05-01 15:08 | 51.03254 | 71.48179 | 1166 ft | 19 kts | 224° |
| 2026-05-01 15:09 | 51.02998 | 71.47775 | 1168 ft | 84 kts | 224° |
| 2026-05-01 15:09 | 51.02443 | 71.46910 | 1171 ft | 141 kts | 225° |
| 2026-05-01 15:09 | 51.01659 | 71.45661 | 1475 ft | 161 kts | 225° |
| 2026-05-01 15:09 | 51.00821 | 71.44362 | 1952 ft | 179 kts | 226° |
| 2026-05-01 15:10 | 50.99958 | 71.43019 | 2876 ft | 173 kts | 228° |
| 2026-05-01 15:10 | 50.98194 | 71.40276 | 3956 ft | 183 kts | 229° |
| 2026-05-01 15:10 | 50.97275 | 71.38853 | 4405 ft | 186 kts | 228° |
| 2026-05-01 15:11 | 50.96321 | 71.37366 | 4612 ft | 200 kts | 231° |
| 2026-05-01 15:11 | 50.95845 | 71.32953 | 4838 ft | 230 kts | 281° |
| 2026-05-01 15:11 | 50.96197 | 71.30380 | 5103 ft | 246 kts | 279° |
| 2026-05-01 15:12 | 50.96553 | 71.27704 | 5678 ft | 250 kts | 279° |
| 2026-05-01 15:12 | 50.97294 | 71.22174 | 6766 ft | 259 kts | 278° |
| 2026-05-01 15:12 | 50.97669 | 71.19378 | 7402 ft | 259 kts | 278° |
| 2026-05-01 15:13 | 50.98804 | 71.10878 | 9184 ft | 265 kts | 278° |
| 2026-05-01 15:14 | 50.99567 | 71.05101 | 10174 ft | 277 kts | 278° |
| 2026-05-01 15:14 | 50.99975 | 71.01995 | 10322 ft | 298 kts | 279° |
| 2026-05-01 15:14 | 51.01117 | 70.95180 | 10650 ft | 341 kts | 282° |
| 2026-05-01 15:15 | 51.02413 | 70.87693 | 11834 ft | 360 kts | 282° |
| 2026-05-01 15:15 | 51.04161 | 70.80134 | 13630 ft | 371 kts | 290° |
| 2026-05-01 15:16 | 51.06352 | 70.72615 | 15283 ft | 379 kts | 291° |
| 2026-05-01 15:16 | 51.08557 | 70.64944 | 17061 ft | 384 kts | 290° |
| 2026-05-01 15:17 | 51.10760 | 70.57061 | 18554 ft | 396 kts | 289° |
| 2026-05-01 15:18 | 51.14127 | 70.44827 | 20721 ft | 409 kts | 289° |
| 2026-05-01 15:18 | 51.15272 | 70.40644 | 21408 ft | 414 kts | 288° |
| 2026-05-01 15:19 | 51.18779 | 70.27792 | 23302 ft | 429 kts | 288° |
| 2026-05-01 15:19 | 51.21170 | 70.18994 | 24380 ft | 435 kts | 288° |
| 2026-05-01 15:19 | 51.22375 | 70.14552 | 24921 ft | 437 kts | 287° |
| 2026-05-01 15:20 | 51.24780 | 70.05656 | 25905 ft | 442 kts | 287° |
| 2026-05-01 15:20 | 51.26000 | 70.01126 | 26356 ft | 445 kts | 287° |
| 2026-05-01 15:20 | 51.27226 | 69.96568 | 26817 ft | 448 kts | 287° |
| 2026-05-01 15:21 | 51.28642 | 69.92097 | 27217 ft | 458 kts | 295° |
| 2026-05-01 15:21 | 51.30478 | 69.87871 | 27500 ft | 467 kts | 300° |
| 2026-05-01 15:21 | 51.32441 | 69.83705 | 27852 ft | 471 kts | 300° |
| 2026-05-01 15:21 | 51.34430 | 69.79529 | 28248 ft | 473 kts | 300° |
| 2026-05-01 15:22 | 51.38378 | 69.71067 | 28970 ft | 476 kts | 299° |
| 2026-05-01 15:22 | 51.40330 | 69.66775 | 29272 ft | 478 kts | 298° |
| 2026-05-01 15:22 | 51.42279 | 69.62443 | 29544 ft | 480 kts | 298° |
| 2026-05-01 15:23 | 51.44224 | 69.58090 | 29838 ft | 481 kts | 298° |
| 2026-05-01 15:23 | 51.46169 | 69.53724 | 30174 ft | 481 kts | 298° |
| 2026-05-01 15:23 | 51.48117 | 69.49344 | 30408 ft | 483 kts | 298° |
| 2026-05-01 15:23 | 51.50067 | 69.44954 | 30711 ft | 483 kts | 298° |
| 2026-05-01 15:24 | 51.52012 | 69.40572 | 31080 ft | 481 kts | 298° |
| 2026-05-01 15:24 | 51.53950 | 69.36204 | 31412 ft | 480 kts | 298° |
| 2026-05-01 15:24 | 51.55873 | 69.31864 | 32031 ft | 472 kts | 298° |
| 2026-05-01 15:24 | 51.57769 | 69.27582 | 32499 ft | 469 kts | 298° |
| 2026-05-01 15:25 | 51.59658 | 69.23295 | 32728 ft | 471 kts | 298° |
| 2026-05-01 15:25 | 51.61552 | 69.18984 | 32946 ft | 472 kts | 298° |
| 2026-05-01 15:25 | 51.63448 | 69.14665 | 33271 ft | 472 kts | 298° |
| 2026-05-01 15:25 | 51.65343 | 69.10344 | 33565 ft | 472 kts | 298° |
| 2026-05-01 15:26 | 51.67234 | 69.06027 | 33878 ft | 471 kts | 298° |
| 2026-05-01 15:26 | 51.69122 | 69.01712 | 34147 ft | 471 kts | 298° |
| 2026-05-01 15:26 | 51.71008 | 68.97392 | 34379 ft | 471 kts | 298° |
| 2026-05-01 15:26 | 51.72894 | 68.93065 | 34591 ft | 472 kts | 298° |
| 2026-05-01 15:27 | 51.74780 | 68.88728 | 34819 ft | 472 kts | 298° |
| 2026-05-01 15:27 | 51.76667 | 68.84386 | 35070 ft | 472 kts | 298° |
| 2026-05-01 15:27 | 51.78550 | 68.80044 | 35303 ft | 472 kts | 298° |
| 2026-05-01 15:28 | 51.82319 | 68.71331 | 35740 ft | 474 kts | 298° |
| 2026-05-01 15:28 | 51.84206 | 68.66954 | 35937 ft | 475 kts | 298° |
| 2026-05-01 15:28 | 51.86094 | 68.62573 | 36169 ft | 475 kts | 298° |
| 2026-05-01 15:29 | 51.89867 | 68.53792 | 36590 ft | 476 kts | 298° |
| 2026-05-01 15:29 | 51.91758 | 68.49378 | 36732 ft | 478 kts | 298° |
| 2026-05-01 15:29 | 51.95550 | 68.40511 | 37128 ft | 478 kts | 298° |
| 2026-05-01 15:30 | 51.98393 | 68.32897 | 37424 ft | 471 kts | 289° |
| 2026-05-01 15:31 | 52.04240 | 68.11921 | 37869 ft | 474 kts | 288° |
| 2026-05-01 15:31 | 52.06966 | 68.02197 | 37869 ft | 471 kts | 288° |
| 2026-05-01 15:32 | 52.12364 | 67.82906 | 37904 ft | 468 kts | 288° |
| 2026-05-01 15:34 | 52.20447 | 67.53692 | 37903 ft | 474 kts | 288° |